Aviation Digital Data Service (ADDS)

Output produced by METARs form (2140 UTC 08 August 2020)
found at http://www.aviationweather.gov/metar/data/
 
METAR text: RJTO 080800Z 21013KT 8000 FEW010 SCT015 29/26 Q1009
Conditions at: RJTO (OSHIMA AIRPORT , JP) observed 0800 UTC 08 August 2020
Temperature: 29.0°C (84°F)
Dewpoint: 26.0°C (79°F) [RH = 84%]
Pressure (altimeter): 29.79 inches Hg (1009.0 mb)
Winds: from the SSW (210 degrees) at 15 MPH (13 knots; 6.7 m/s)
Visibility: 5 miles ( 8 km)
Ceiling: at least 12,000 feet AGL
Clouds: few clouds at 1000 feet AGL
scattered clouds at 1500 feet AGL
Weather: no significant weather observed at this time

METAR text: RJTO 080700Z 21015KT 8000 FEW010 30/26 Q1008
Conditions at: RJTO (OSHIMA AIRPORT , JP) observed 0700 UTC 08 August 2020
Temperature: 30.0°C (86°F)
Dewpoint: 26.0°C (79°F) [RH = 79%]
Pressure (altimeter): 29.76 inches Hg (1008.0 mb)
Winds: from the SSW (210 degrees) at 17 MPH (15 knots; 7.7 m/s)
Visibility: 5 miles ( 8 km)
Ceiling: at least 12,000 feet AGL
Clouds: few clouds at 1000 feet AGL
Weather: no significant weather observed at this time

METAR text: RJTO 080600Z 21015KT 6000 FEW010 SCT/// 30/26 Q1008
Conditions at: RJTO (OSHIMA AIRPORT , JP) observed 0600 UTC 08 August 2020
Temperature: 30.0°C (86°F)
Dewpoint: 26.0°C (79°F) [RH = 79%]
Pressure (altimeter): 29.76 inches Hg (1008.0 mb)
Winds: from the SSW (210 degrees) at 17 MPH (15 knots; 7.7 m/s)
Visibility: 4 miles ( 6 km)
Ceiling: at least 12,000 feet AGL
Clouds: few clouds at 1000 feet AGL
Weather: no significant weather observed at this time

METAR text: RJTO 080500Z 20017KT 6000 FEW010 BKN/// 31/26 Q1008
Conditions at: RJTO (OSHIMA AIRPORT , JP) observed 0500 UTC 08 August 2020
Temperature: 31.0°C (88°F)
Dewpoint: 26.0°C (79°F) [RH = 75%]
Pressure (altimeter): 29.76 inches Hg (1008.0 mb)
Winds: from the SSW (200 degrees) at 20 MPH (17 knots; 8.7 m/s)
Visibility: 4 miles ( 6 km)
Ceiling: at least 12,000 feet AGL
Clouds: few clouds at 1000 feet AGL
Weather: no significant weather observed at this time

METAR text: RJTO 080400Z 20018KT 6000 FEW010 BKN/// 30/26 Q1009
Conditions at: RJTO (OSHIMA AIRPORT , JP) observed 0400 UTC 08 August 2020
Temperature: 30.0°C (86°F)
Dewpoint: 26.0°C (79°F) [RH = 79%]
Pressure (altimeter): 29.79 inches Hg (1009.0 mb)
Winds: from the SSW (200 degrees) at 21 MPH (18 knots; 9.3 m/s)
Visibility: 4 miles ( 6 km)
Ceiling: at least 12,000 feet AGL
Clouds: few clouds at 1000 feet AGL
Weather: no significant weather observed at this time

METAR text: RJTO 080300Z 20017KT 7000 FEW008 BKN/// 30/26 Q1009
Conditions at: RJTO (OSHIMA AIRPORT , JP) observed 0300 UTC 08 August 2020
Temperature: 30.0°C (86°F)
Dewpoint: 26.0°C (79°F) [RH = 79%]
Pressure (altimeter): 29.79 inches Hg (1009.0 mb)
Winds: from the SSW (200 degrees) at 20 MPH (17 knots; 8.7 m/s)
Visibility: 4 miles ( 7 km)
Ceiling: at least 12,000 feet AGL
Clouds: few clouds at 800 feet AGL
Weather: no significant weather observed at this time

METAR text: RJTO 080200Z 20017KT 8000 FEW008 BKN/// 30/26 Q1009
Conditions at: RJTO (OSHIMA AIRPORT , JP) observed 0200 UTC 08 August 2020
Temperature: 30.0°C (86°F)
Dewpoint: 26.0°C (79°F) [RH = 79%]
Pressure (altimeter): 29.79 inches Hg (1009.0 mb)
Winds: from the SSW (200 degrees) at 20 MPH (17 knots; 8.7 m/s)
Visibility: 5 miles ( 8 km)
Ceiling: at least 12,000 feet AGL
Clouds: few clouds at 800 feet AGL
Weather: no significant weather observed at this time

METAR text: RJTO 080100Z 20015KT 8000 FEW009 BKN/// 29/26 Q1009
Conditions at: RJTO (OSHIMA AIRPORT , JP) observed 0100 UTC 08 August 2020
Temperature: 29.0°C (84°F)
Dewpoint: 26.0°C (79°F) [RH = 84%]
Pressure (altimeter): 29.79 inches Hg (1009.0 mb)
Winds: from the SSW (200 degrees) at 17 MPH (15 knots; 7.7 m/s)
Visibility: 5 miles ( 8 km)
Ceiling: at least 12,000 feet AGL
Clouds: few clouds at 900 feet AGL
Weather: no significant weather observed at this time

METAR text: RJTO 080000Z 20016KT 6000 SCT008 BKN/// 29/26 Q1009
Conditions at: RJTO (OSHIMA AIRPORT , JP) observed 0000 UTC 08 August 2020
Temperature: 29.0°C (84°F)
Dewpoint: 26.0°C (79°F) [RH = 84%]
Pressure (altimeter): 29.79 inches Hg (1009.0 mb)
Winds: from the SSW (200 degrees) at 18 MPH (16 knots; 8.2 m/s)
Visibility: 4 miles ( 6 km)
Ceiling: at least 12,000 feet AGL
Clouds: scattered clouds at 800 feet AGL
Weather: no significant weather observed at this time

METAR text: RJTO 072332Z 20015KT 5000 BR FEW007 BKN/// 28/26 Q1009 RMK 1ST007 A2981
Conditions at: RJTO (OSHIMA AIRPORT , JP) observed 2332 UTC 07 August 2020
Temperature: 28.0°C (82°F)
Dewpoint: 26.0°C (79°F) [RH = 89%]
Pressure (altimeter): 29.79 inches Hg (1009.0 mb)
Winds: from the SSW (200 degrees) at 17 MPH (15 knots; 7.7 m/s)
Visibility: 3 miles ( 5 km)
Ceiling: at least 12,000 feet AGL
Clouds: few clouds at 700 feet AGL
Weather: BR  (mist)

METAR text: RJTO 072300Z 20014KT 4500 BR FEW006 BKN/// 28/26 Q1009
Conditions at: RJTO (OSHIMA AIRPORT , JP) observed 2300 UTC 07 August 2020
Temperature: 28.0°C (82°F)
Dewpoint: 26.0°C (79°F) [RH = 89%]
Pressure (altimeter): 29.79 inches Hg (1009.0 mb)
Winds: from the SSW (200 degrees) at 16 MPH (14 knots; 7.2 m/s)
Visibility: 2.80 miles (4.51 km)
Ceiling: at least 12,000 feet AGL
Clouds: few clouds at 600 feet AGL
Weather: BR  (mist)